sensor_id;sensor_type;location;lat;lon;timestamp;pressure;altitude;pressure_sealevel;temperature
18161;BMP280;9205;52.032;4.314;2023-03-15T00:02:11;101183.34;;;6.22
18161;BMP280;9205;52.032;4.314;2023-03-15T00:04:39;101184.16;;;6.18
18161;BMP280;9205;52.032;4.314;2023-03-15T00:07:08;101176.59;;;6.15
18161;BMP280;9205;52.032;4.314;2023-03-15T00:09:36;101172.38;;;6.11
18161;BMP280;9205;52.032;4.314;2023-03-15T00:12:04;101178.25;;;6.06
18161;BMP280;9205;52.032;4.314;2023-03-15T00:14:32;101178.25;;;6.01
18161;BMP280;9205;52.032;4.314;2023-03-15T00:16:59;101194.22;;;5.97
18161;BMP280;9205;52.032;4.314;2023-03-15T00:19:27;101182.44;;;5.98
18161;BMP280;9205;52.032;4.314;2023-03-15T00:21:54;101187.50;;;5.95
18161;BMP280;9205;52.032;4.314;2023-03-15T00:24:23;101190.88;;;6.01
18161;BMP280;9205;52.032;4.314;2023-03-15T00:26:50;101192.56;;;6.08
18161;BMP280;9205;52.032;4.314;2023-03-15T00:29:18;101197.59;;;6.11
18161;BMP280;9205;52.032;4.314;2023-03-15T00:31:45;101194.22;;;5.99
18161;BMP280;9205;52.032;4.314;2023-03-15T00:34:13;101200.94;;;5.98
18161;BMP280;9205;52.032;4.314;2023-03-15T00:36:40;101199.25;;;5.97
18161;BMP280;9205;52.032;4.314;2023-03-15T00:39:09;101204.31;;;5.97
18161;BMP280;9205;52.032;4.314;2023-03-15T00:41:38;101207.69;;;5.99
18161;BMP280;9205;52.032;4.314;2023-03-15T00:44:06;101200.94;;;6.00
18161;BMP280;9205;52.032;4.314;2023-03-15T00:46:33;101206.81;;;5.99
18161;BMP280;9205;52.032;4.314;2023-03-15T00:49:00;101204.28;;;5.93
18161;BMP280;9205;52.032;4.314;2023-03-15T00:51:28;101211.03;;;5.92
18161;BMP280;9205;52.032;4.314;2023-03-15T00:53:56;101212.69;;;5.90
18161;BMP280;9205;52.032;4.314;2023-03-15T00:56:25;101212.72;;;5.95
18161;BMP280;9205;52.032;4.314;2023-03-15T00:58:58;101219.47;;;6.00
18161;BMP280;9205;52.032;4.314;2023-03-15T01:01:28;101229.53;;;5.97
18161;BMP280;9205;52.032;4.314;2023-03-15T01:03:56;101221.94;;;5.99
18161;BMP280;9205;52.032;4.314;2023-03-15T01:06:26;101225.31;;;5.98
18161;BMP280;9205;52.032;4.314;2023-03-15T01:08:55;101231.22;;;5.97
18161;BMP280;9205;52.032;4.314;2023-03-15T01:11:28;101240.44;;;5.96
18161;BMP280;9205;52.032;4.314;2023-03-15T01:13:58;101233.75;;;5.97
18161;BMP280;9205;52.032;4.314;2023-03-15T01:16:26;101242.13;;;5.99
18161;BMP280;9205;52.032;4.314;2023-03-15T01:18:55;101247.19;;;6.00
18161;BMP280;9205;52.032;4.314;2023-03-15T01:21:23;101247.19;;;5.99
18161;BMP280;9205;52.032;4.314;2023-03-15T01:23:51;101246.38;;;6.03
18161;BMP280;9205;52.032;4.314;2023-03-15T01:26:21;101242.19;;;6.05
18161;BMP280;9205;52.032;4.314;2023-03-15T01:28:50;101248.03;;;6.02
18161;BMP280;9205;52.032;4.314;2023-03-15T01:31:22;101254.78;;;6.00
18161;BMP280;9205;52.032;4.314;2023-03-15T01:33:50;101253.06;;;5.99
18161;BMP280;9205;52.032;4.314;2023-03-15T01:36:19;101254.75;;;5.99
18161;BMP280;9205;52.032;4.314;2023-03-15T01:38:47;101258.97;;;6.03
18161;BMP280;9205;52.032;4.314;2023-03-15T01:41:19;101263.16;;;6.02
18161;BMP280;9205;52.032;4.314;2023-03-15T01:43:48;101264.00;;;6.04
18161;BMP280;9205;52.032;4.314;2023-03-15T01:46:29;101264.84;;;5.97
18161;BMP280;9205;52.032;4.314;2023-03-15T01:49:13;101280.81;;;6.01
18161;BMP280;9205;52.032;4.314;2023-03-15T01:51:46;101280.00;;;6.05
18161;BMP280;9205;52.032;4.314;2023-03-15T01:54:22;101279.13;;;6.06
18161;BMP280;9205;52.032;4.314;2023-03-15T01:56:59;101280.00;;;6.09
18161;BMP280;9205;52.032;4.314;2023-03-15T01:59:32;101285.94;;;6.13
18161;BMP280;9205;52.032;4.314;2023-03-15T02:02:04;101292.63;;;6.14
18161;BMP280;9205;52.032;4.314;2023-03-15T02:04:37;101297.69;;;6.15
18161;BMP280;9205;52.032;4.314;2023-03-15T02:07:08;101299.38;;;6.16
18161;BMP280;9205;52.032;4.314;2023-03-15T02:09:48;101298.53;;;6.17
18161;BMP280;9205;52.032;4.314;2023-03-15T02:12:18;101295.16;;;6.14
18161;BMP280;9205;52.032;4.314;2023-03-15T02:14:49;101298.53;;;6.14
18161;BMP280;9205;52.032;4.314;2023-03-15T02:17:28;101306.97;;;6.16
18161;BMP280;9205;52.032;4.314;2023-03-15T02:20:11;101308.63;;;6.17
18161;BMP280;9205;52.032;4.314;2023-03-15T02:22:51;101314.53;;;6.16
18161;BMP280;9205;52.032;4.314;2023-03-15T02:25:33;101311.97;;;6.13
18161;BMP280;9205;52.032;4.314;2023-03-15T02:28:07;101312.84;;;6.20
18161;BMP280;9205;52.032;4.314;2023-03-15T02:30:36;101312.81;;;6.14
18161;BMP280;9205;52.032;4.314;2023-03-15T02:33:14;101311.97;;;6.13
18161;BMP280;9205;52.032;4.314;2023-03-15T02:35:44;101319.53;;;6.10
18161;BMP280;9205;52.032;4.314;2023-03-15T02:38:12;101318.69;;;6.08
18161;BMP280;9205;52.032;4.314;2023-03-15T02:40:39;101327.94;;;6.14
18161;BMP280;9205;52.032;4.314;2023-03-15T02:43:13;101330.44;;;6.08
18161;BMP280;9205;52.032;4.314;2023-03-15T02:45:42;101332.97;;;6.06
18161;BMP280;9205;52.032;4.314;2023-03-15T02:48:10;101343.03;;;6.03
18161;BMP280;9205;52.032;4.314;2023-03-15T02:50:40;101338.84;;;6.05
18161;BMP280;9205;52.032;4.314;2023-03-15T02:53:08;101338.81;;;6.02
18161;BMP280;9205;52.032;4.314;2023-03-15T02:55:37;101359.03;;;6.07
18161;BMP280;9205;52.032;4.314;2023-03-15T02:58:07;101367.47;;;6.07
18161;BMP280;9205;52.032;4.314;2023-03-15T03:00:35;101369.16;;;6.08
18161;BMP280;9205;52.032;4.314;2023-03-15T03:03:03;101376.66;;;6.02
18161;BMP280;9205;52.032;4.314;2023-03-15T03:05:31;101390.13;;;6.03
18161;BMP280;9205;52.032;4.314;2023-03-15T03:07:59;101398.53;;;6.02
18161;BMP280;9205;52.032;4.314;2023-03-15T03:10:28;101393.47;;;5.97
18161;BMP280;9205;52.032;4.314;2023-03-15T03:12:57;101402.69;;;5.92
18161;BMP280;9205;52.032;4.314;2023-03-15T03:15:37;101403.50;;;5.90
18161;BMP280;9205;52.032;4.314;2023-03-15T03:18:05;101405.06;;;5.74
18161;BMP280;9205;52.032;4.314;2023-03-15T03:20:32;101406.72;;;5.71
18161;BMP280;9205;52.032;4.314;2023-03-15T03:23:00;101399.16;;;5.72
18161;BMP280;9205;52.032;4.314;2023-03-15T03:25:31;101408.50;;;5.82
18161;BMP280;9205;52.032;4.314;2023-03-15T03:27:59;101406.84;;;5.87
18161;BMP280;9205;52.032;4.314;2023-03-15T03:30:30;101415.22;;;5.85
18161;BMP280;9205;52.032;4.314;2023-03-15T03:32:58;101411.91;;;5.89
18161;BMP280;9205;52.032;4.314;2023-03-15T03:35:26;101409.34;;;5.87
18161;BMP280;9205;52.032;4.314;2023-03-15T03:37:54;101419.44;;;5.87
18161;BMP280;9205;52.032;4.314;2023-03-15T03:40:28;101411.88;;;5.87
18161;BMP280;9205;52.032;4.314;2023-03-15T03:42:55;101422.00;;;5.90
18161;BMP280;9205;52.032;4.314;2023-03-15T03:45:23;101421.25;;;6.00
18161;BMP280;9205;52.032;4.314;2023-03-15T03:47:54;101418.75;;;6.08
18161;BMP280;9205;52.032;4.314;2023-03-15T03:50:24;101408.66;;;6.09
18161;BMP280;9205;52.032;4.314;2023-03-15T03:52:52;101426.34;;;6.12
18161;BMP280;9205;52.032;4.314;2023-03-15T03:55:25;101423.00;;;6.12
18161;BMP280;9205;52.032;4.314;2023-03-15T03:57:53;101437.25;;;6.11
18161;BMP280;9205;52.032;4.314;2023-03-15T04:00:38;101438.91;;;6.00
18161;BMP280;9205;52.032;4.314;2023-03-15T04:03:08;101439.72;;;5.99
18161;BMP280;9205;52.032;4.314;2023-03-15T04:05:38;101440.53;;;5.94
18161;BMP280;9205;52.032;4.314;2023-03-15T04:08:07;101445.47;;;5.79
18161;BMP280;9205;52.032;4.314;2023-03-15T04:10:38;101448.81;;;5.76
18161;BMP280;9205;52.032;4.314;2023-03-15T04:13:07;101457.25;;;5.83
18161;BMP280;9205;52.032;4.314;2023-03-15T04:15:34;101470.69;;;5.80
18161;BMP280;9205;52.032;4.314;2023-03-15T04:18:06;101465.63;;;5.77
18161;BMP280;9205;52.032;4.314;2023-03-15T04:20:41;101486.63;;;5.76
18161;BMP280;9205;52.032;4.314;2023-03-15T04:23:12;101485.72;;;5.76
18161;BMP280;9205;52.032;4.314;2023-03-15T04:25:53;101505.16;;;5.81
18161;BMP280;9205;52.032;4.314;2023-03-15T04:28:36;101506.56;;;5.55
18161;BMP280;9205;52.032;4.314;2023-03-15T04:31:27;101503.19;;;5.55
18161;BMP280;9205;52.032;4.314;2023-03-15T04:34:26;101498.16;;;5.53
18161;BMP280;9205;52.032;4.314;2023-03-15T04:37:16;101502.34;;;5.50
18161;BMP280;9205;52.032;4.314;2023-03-15T04:40:02;101506.56;;;5.52
18161;BMP280;9205;52.032;4.314;2023-03-15T04:42:55;101512.47;;;5.57
18161;BMP280;9205;52.032;4.314;2023-03-15T04:45:34;101508.25;;;5.55
18161;BMP280;9205;52.032;4.314;2023-03-15T04:48:24;101522.50;;;5.53
18161;BMP280;9205;52.032;4.314;2023-03-15T04:51:12;101514.97;;;5.54
18161;BMP280;9205;52.032;4.314;2023-03-15T04:53:59;101521.69;;;5.55
18161;BMP280;9205;52.032;4.314;2023-03-15T04:56:50;101523.31;;;5.52
18161;BMP280;9205;52.032;4.314;2023-03-15T04:59:47;101531.66;;;5.45
18161;BMP280;9205;52.032;4.314;2023-03-15T05:02:36;101529.94;;;5.40
18161;BMP280;9205;52.032;4.314;2023-03-15T05:05:12;101547.59;;;5.41
18161;BMP280;9205;52.032;4.314;2023-03-15T05:08:04;101534.16;;;5.42
18161;BMP280;9205;52.032;4.314;2023-03-15T05:10:46;101548.47;;;5.44
18161;BMP280;9205;52.032;4.314;2023-03-15T05:13:25;101551.88;;;5.46
18161;BMP280;9205;52.032;4.314;2023-03-15T05:16:05;101555.94;;;5.37
18161;BMP280;9205;52.032;4.314;2023-03-15T05:18:41;101556.75;;;5.35
18161;BMP280;9205;52.032;4.314;2023-03-15T05:21:13;101553.34;;;5.30
18161;BMP280;9205;52.032;4.314;2023-03-15T05:23:58;101561.75;;;5.30
18161;BMP280;9205;52.032;4.314;2023-03-15T05:26:36;101559.22;;;5.29
18161;BMP280;9205;52.032;4.314;2023-03-15T05:29:22;101562.63;;;5.32
18161;BMP280;9205;52.032;4.314;2023-03-15T05:32:00;101562.56;;;5.28
18161;BMP280;9205;52.032;4.314;2023-03-15T05:34:52;101561.75;;;5.29
18161;BMP280;9205;52.032;4.314;2023-03-15T05:37:38;101568.41;;;5.24
18161;BMP280;9205;52.032;4.314;2023-03-15T05:40:25;101579.28;;;5.21
18161;BMP280;9205;52.032;4.314;2023-03-15T05:43:08;101582.72;;;5.26
18161;BMP280;9205;52.032;4.314;2023-03-15T05:45:52;101590.28;;;5.29
18161;BMP280;9205;52.032;4.314;2023-03-15T05:48:36;101598.75;;;5.34
18161;BMP280;9205;52.032;4.314;2023-03-15T05:51:37;101596.25;;;5.37
18161;BMP280;9205;52.032;4.314;2023-03-15T05:54:32;101609.72;;;5.38
18161;BMP280;9205;52.032;4.314;2023-03-15T05:57:23;101618.09;;;5.37
18161;BMP280;9205;52.032;4.314;2023-03-15T06:00:17;101623.09;;;5.32
18161;BMP280;9205;52.032;4.314;2023-03-15T06:02:51;101630.53;;;5.22
18161;BMP280;9205;52.032;4.314;2023-03-15T06:05:42;101632.16;;;5.20
18161;BMP280;9205;52.032;4.314;2023-03-15T06:08:15;101640.56;;;5.19
18161;BMP280;9205;52.032;4.314;2023-03-15T06:10:49;101636.25;;;5.10
18161;BMP280;9205;52.032;4.314;2023-03-15T06:13:19;101643.06;;;5.16
18161;BMP280;9205;52.032;4.314;2023-03-15T06:15:49;101640.47;;;5.14
18161;BMP280;9205;52.032;4.314;2023-03-15T06:18:18;101651.38;;;5.12
18161;BMP280;9205;52.032;4.314;2023-03-15T06:20:49;101656.41;;;5.12
18161;BMP280;9205;52.032;4.314;2023-03-15T06:23:18;101658.81;;;5.03
18161;BMP280;9205;52.032;4.314;2023-03-15T06:25:49;101665.44;;;4.96
18161;BMP280;9205;52.032;4.314;2023-03-15T06:28:18;101668.78;;;4.95
18161;BMP280;9205;52.032;4.314;2023-03-15T06:30:53;101670.41;;;4.92
18161;BMP280;9205;52.032;4.314;2023-03-15T06:33:25;101676.94;;;4.79
18161;BMP280;9205;52.032;4.314;2023-03-15T06:35:54;101680.38;;;4.86
18161;BMP280;9205;52.032;4.314;2023-03-15T06:38:24;101679.63;;;4.90
18161;BMP280;9205;52.032;4.314;2023-03-15T06:40:51;101686.34;;;4.91
18161;BMP280;9205;52.032;4.314;2023-03-15T06:43:20;101690.59;;;4.95
18161;BMP280;9205;52.032;4.314;2023-03-15T06:45:48;101699.16;;;5.06
18161;BMP280;9205;52.032;4.314;2023-03-15T06:48:21;101688.13;;;4.99
18161;BMP280;9205;52.032;4.314;2023-03-15T06:50:52;101707.47;;;4.99
18161;BMP280;9205;52.032;4.314;2023-03-15T06:53:20;101699.81;;;4.94
18161;BMP280;9205;52.032;4.314;2023-03-15T06:55:48;101695.69;;;4.98
18161;BMP280;9205;52.032;4.314;2023-03-15T06:58:17;101708.34;;;5.01
18161;BMP280;9205;52.032;4.314;2023-03-15T07:00:44;101712.63;;;5.08
18161;BMP280;9205;52.032;4.314;2023-03-15T07:03:13;101720.25;;;5.12
18161;BMP280;9205;52.032;4.314;2023-03-15T07:05:43;101715.16;;;5.11
18161;BMP280;9205;52.032;4.314;2023-03-15T07:08:17;101724.44;;;5.12
18161;BMP280;9205;52.032;4.314;2023-03-15T07:10:46;101736.28;;;5.19
18161;BMP280;9205;52.032;4.314;2023-03-15T07:13:13;101725.50;;;5.27
18161;BMP280;9205;52.032;4.314;2023-03-15T07:15:41;101722.19;;;5.31
18161;BMP280;9205;52.032;4.314;2023-03-15T07:18:09;101725.56;;;5.32
18161;BMP280;9205;52.032;4.314;2023-03-15T07:20:37;101731.47;;;5.34
18161;BMP280;9205;52.032;4.314;2023-03-15T07:23:06;101740.75;;;5.38
18161;BMP280;9205;52.032;4.314;2023-03-15T07:25:33;101749.91;;;5.33
18161;BMP280;9205;52.032;4.314;2023-03-15T07:28:00;101753.38;;;5.39
18161;BMP280;9205;52.032;4.314;2023-03-15T07:30:28;101736.50;;;5.34
18161;BMP280;9205;52.032;4.314;2023-03-15T07:32:55;101738.16;;;5.32
18161;BMP280;9205;52.032;4.314;2023-03-15T07:35:22;101741.50;;;5.31
18161;BMP280;9205;52.032;4.314;2023-03-15T07:37:53;101750.03;;;5.41
18161;BMP280;9205;52.032;4.314;2023-03-15T07:40:22;101747.56;;;5.43
18161;BMP280;9205;52.032;4.314;2023-03-15T07:42:51;101759.31;;;5.44
18161;BMP280;9205;52.032;4.314;2023-03-15T07:45:19;101764.47;;;5.51
18161;BMP280;9205;52.032;4.314;2023-03-15T07:47:46;101771.16;;;5.49
18161;BMP280;9205;52.032;4.314;2023-03-15T07:50:13;101775.38;;;5.50
18161;BMP280;9205;52.032;4.314;2023-03-15T07:52:42;101775.47;;;5.56
18161;BMP280;9205;52.032;4.314;2023-03-15T07:55:10;101777.22;;;5.63
18161;BMP280;9205;52.032;4.314;2023-03-15T07:57:50;101781.50;;;5.69
18161;BMP280;9205;52.032;4.314;2023-03-15T08:00:19;101789.13;;;5.70
18161;BMP280;9205;52.032;4.314;2023-03-15T08:02:48;101788.31;;;5.74
18161;BMP280;9205;52.032;4.314;2023-03-15T08:05:17;101784.91;;;5.72
18161;BMP280;9205;52.032;4.314;2023-03-15T08:07:52;101791.75;;;5.78
18161;BMP280;9205;52.032;4.314;2023-03-15T08:10:21;101794.38;;;5.85
18161;BMP280;9205;52.032;4.314;2023-03-15T08:13:02;101804.56;;;5.94
18161;BMP280;9205;52.032;4.314;2023-03-15T08:16:08;101809.72;;;6.00
18161;BMP280;9205;52.032;4.314;2023-03-15T08:18:38;101808.06;;;6.05
18161;BMP280;9205;52.032;4.314;2023-03-15T08:21:31;101816.53;;;6.10
18161;BMP280;9205;52.032;4.314;2023-03-15T08:24:13;101817.47;;;6.17
18161;BMP280;9205;52.032;4.314;2023-03-15T08:26:43;101815.06;;;6.25
18161;BMP280;9205;52.032;4.314;2023-03-15T08:29:16;101821.88;;;6.34
18161;BMP280;9205;52.032;4.314;2023-03-15T08:31:45;101818.59;;;6.42
18161;BMP280;9205;52.032;4.314;2023-03-15T08:34:16;101821.25;;;6.56
18161;BMP280;9205;52.032;4.314;2023-03-15T08:36:46;101821.34;;;6.65
18161;BMP280;9205;52.032;4.314;2023-03-15T08:39:14;101817.94;;;6.61
18161;BMP280;9205;52.032;4.314;2023-03-15T08:41:43;101813.72;;;6.59
18161;BMP280;9205;52.032;4.314;2023-03-15T08:44:19;101813.78;;;6.63
18161;BMP280;9205;52.032;4.314;2023-03-15T08:46:46;101812.22;;;6.76
18161;BMP280;9205;52.032;4.314;2023-03-15T08:49:14;101811.44;;;6.84
18161;BMP280;9205;52.032;4.314;2023-03-15T08:51:42;101830.06;;;6.97
18161;BMP280;9205;52.032;4.314;2023-03-15T08:54:09;101826.78;;;7.06
18161;BMP280;9205;52.032;4.314;2023-03-15T08:56:38;101831.94;;;7.18
18161;BMP280;9205;52.032;4.314;2023-03-15T08:59:13;101820.13;;;7.17
18161;BMP280;9205;52.032;4.314;2023-03-15T09:01:43;101816.72;;;7.12
18161;BMP280;9205;52.032;4.314;2023-03-15T09:04:11;101827.72;;;7.14
18161;BMP280;9205;52.032;4.314;2023-03-15T09:06:38;101822.69;;;7.19
18161;BMP280;9205;52.032;4.314;2023-03-15T09:09:10;101812.63;;;7.23
18161;BMP280;9205;52.032;4.314;2023-03-15T09:11:42;101809.28;;;7.30
18161;BMP280;9205;52.032;4.314;2023-03-15T09:14:10;101803.38;;;7.30
18161;BMP280;9205;52.032;4.314;2023-03-15T09:16:40;101806.72;;;7.27
18161;BMP280;9205;52.032;4.314;2023-03-15T09:19:09;101809.25;;;7.29
18161;BMP280;9205;52.032;4.314;2023-03-15T09:21:37;101804.19;;;7.24
18161;BMP280;9205;52.032;4.314;2023-03-15T09:24:15;101803.34;;;7.22
18161;BMP280;9205;52.032;4.314;2023-03-15T09:26:44;101804.13;;;7.18
18161;BMP280;9205;52.032;4.314;2023-03-15T09:29:12;101790.72;;;7.27
18161;BMP280;9205;52.032;4.314;2023-03-15T09:31:39;101806.81;;;7.35
18161;BMP280;9205;52.032;4.314;2023-03-15T09:34:08;101807.66;;;7.40
18161;BMP280;9205;52.032;4.314;2023-03-15T09:36:36;101811.06;;;7.43
18161;BMP280;9205;52.032;4.314;2023-03-15T09:39:04;101811.09;;;7.49
18161;BMP280;9205;52.032;4.314;2023-03-15T09:41:41;101811.16;;;7.64
18161;BMP280;9205;52.032;4.314;2023-03-15T09:44:31;101811.22;;;7.70
18161;BMP280;9205;52.032;4.314;2023-03-15T09:47:17;101804.47;;;7.72
18161;BMP280;9205;52.032;4.314;2023-03-15T09:49:55;101807.00;;;7.72
18161;BMP280;9205;52.032;4.314;2023-03-15T09:52:33;101807.84;;;7.70
18161;BMP280;9205;52.032;4.314;2023-03-15T09:55:11;101813.78;;;7.75
18161;BMP280;9205;52.032;4.314;2023-03-15T09:57:46;101815.44;;;7.75
18161;BMP280;9205;52.032;4.314;2023-03-15T10:00:21;101811.28;;;7.80
18161;BMP280;9205;52.032;4.314;2023-03-15T10:02:56;101811.28;;;7.83
18161;BMP280;9205;52.032;4.314;2023-03-15T10:05:39;101820.59;;;7.86
18161;BMP280;9205;52.032;4.314;2023-03-15T10:08:13;101824.84;;;7.96
18161;BMP280;9205;52.032;4.314;2023-03-15T10:10:50;101822.38;;;8.08
18161;BMP280;9205;52.032;4.314;2023-03-15T10:13:36;101824.06;;;8.12
18161;BMP280;9205;52.032;4.314;2023-03-15T10:16:25;101835.88;;;8.13
18161;BMP280;9205;52.032;4.314;2023-03-15T10:19:20;101838.47;;;8.16
18161;BMP280;9205;52.032;4.314;2023-03-15T10:21:58;101846.91;;;8.22
18161;BMP280;9205;52.032;4.314;2023-03-15T10:24:36;101846.94;;;8.33
18161;BMP280;9205;52.032;4.314;2023-03-15T10:27:18;101853.69;;;8.29
18161;BMP280;9205;52.032;4.314;2023-03-15T10:29:48;101857.97;;;8.36
18161;BMP280;9205;52.032;4.314;2023-03-15T10:32:18;101854.59;;;8.43
18161;BMP280;9205;52.032;4.314;2023-03-15T10:34:51;101863.03;;;8.45
18161;BMP280;9205;52.032;4.314;2023-03-15T10:37:23;101874.88;;;8.49
18161;BMP280;9205;52.032;4.314;2023-03-15T10:39:56;101868.94;;;8.43
18161;BMP280;9205;52.032;4.314;2023-03-15T10:42:27;101863.88;;;8.40
18161;BMP280;9205;52.032;4.314;2023-03-15T10:44:57;101879.09;;;8.52
18161;BMP280;9205;52.032;4.314;2023-03-15T10:47:29;101871.53;;;8.55
18161;BMP280;9205;52.032;4.314;2023-03-15T10:49:58;101872.41;;;8.62
18161;BMP280;9205;52.032;4.314;2023-03-15T10:52:36;101874.09;;;8.66
18161;BMP280;9205;52.032;4.314;2023-03-15T10:55:06;101879.13;;;8.68
18161;BMP280;9205;52.032;4.314;2023-03-15T10:57:40;101880.84;;;8.73
18161;BMP280;9205;52.032;4.314;2023-03-15T11:00:29;101890.19;;;8.83
18161;BMP280;9205;52.032;4.314;2023-03-15T11:03:03;101889.34;;;8.93
18161;BMP280;9205;52.032;4.314;2023-03-15T11:05:41;101889.34;;;8.96
18161;BMP280;9205;52.032;4.314;2023-03-15T11:08:15;101889.34;;;9.02
18161;BMP280;9205;52.032;4.314;2023-03-15T11:10:44;101896.13;;;9.08
18161;BMP280;9205;52.032;4.314;2023-03-15T11:13:18;101886.81;;;9.16
18161;BMP280;9205;52.032;4.314;2023-03-15T11:15:57;101892.75;;;9.19
18161;BMP280;9205;52.032;4.314;2023-03-15T11:18:31;101886.00;;;9.21
18161;BMP280;9205;52.032;4.314;2023-03-15T11:21:02;101888.50;;;9.18
18161;BMP280;9205;52.032;4.314;2023-03-15T11:23:39;101889.38;;;9.17
18161;BMP280;9205;52.032;4.314;2023-03-15T11:26:19;101885.13;;;9.25
18161;BMP280;9205;52.032;4.314;2023-03-15T11:28:51;101893.59;;;9.33
18161;BMP280;9205;52.032;4.314;2023-03-15T11:31:20;101870.78;;;9.45
18161;BMP280;9205;52.032;4.314;2023-03-15T11:33:55;101873.28;;;9.57
18161;BMP280;9205;52.032;4.314;2023-03-15T11:36:29;101874.09;;;9.74
18161;BMP280;9205;52.032;4.314;2023-03-15T11:39:01;101876.63;;;9.80
18161;BMP280;9205;52.032;4.314;2023-03-15T11:41:36;101872.38;;;9.88
18161;BMP280;9205;52.032;4.314;2023-03-15T11:44:26;101878.25;;;10.15
18161;BMP280;9205;52.032;4.314;2023-03-15T11:47:09;101874.88;;;10.16
18161;BMP280;9205;52.032;4.314;2023-03-15T11:49:47;101877.41;;;10.16
18161;BMP280;9205;52.032;4.314;2023-03-15T11:52:16;101872.34;;;10.10
18161;BMP280;9205;52.032;4.314;2023-03-15T11:54:46;101877.38;;;10.26
18161;BMP280;9205;52.032;4.314;2023-03-15T11:57:43;101871.34;;;10.51
18161;BMP280;9205;52.032;4.314;2023-03-15T12:03:36;101881.34;;;10.83
18161;BMP280;9205;52.032;4.314;2023-03-15T12:06:32;101884.56;;;11.05
18161;BMP280;9205;52.032;4.314;2023-03-15T12:09:01;101883.63;;;11.17
18161;BMP280;9205;52.032;4.314;2023-03-15T12:11:47;101882.75;;;11.18
18161;BMP280;9205;52.032;4.314;2023-03-15T12:14:29;101892.25;;;10.95
18161;BMP280;9205;52.032;4.314;2023-03-15T12:17:38;101886.34;;;10.91
18161;BMP280;9205;52.032;4.314;2023-03-15T12:20:32;101884.66;;;10.92
18161;BMP280;9205;52.032;4.314;2023-03-15T12:23:22;101883.00;;;10.82
18161;BMP280;9205;52.032;4.314;2023-03-15T12:25:57;101867.81;;;10.75
18161;BMP280;9205;52.032;4.314;2023-03-15T12:28:33;101882.22;;;10.77
18161;BMP280;9205;52.032;4.314;2023-03-15T12:31:04;101882.25;;;10.71
18161;BMP280;9205;52.032;4.314;2023-03-15T12:33:45;101888.13;;;10.81
18161;BMP280;9205;52.032;4.314;2023-03-15T12:36:29;101882.16;;;10.83
18161;BMP280;9205;52.032;4.314;2023-03-15T12:39:18;101876.22;;;10.89
18161;BMP280;9205;52.032;4.314;2023-03-15T12:41:48;101866.09;;;10.83
18161;BMP280;9205;52.032;4.314;2023-03-15T12:44:25;101875.31;;;10.94
18161;BMP280;9205;52.032;4.314;2023-03-15T12:47:05;101877.88;;;10.91
18161;BMP280;9205;52.032;4.314;2023-03-15T12:49:42;101866.94;;;10.82
18161;BMP280;9205;52.032;4.314;2023-03-15T12:52:44;101869.56;;;10.68
18161;BMP280;9205;52.032;4.314;2023-03-15T12:55:18;101862.78;;;10.64
18161;BMP280;9205;52.032;4.314;2023-03-15T12:57:48;101860.19;;;10.73
18161;BMP280;9205;52.032;4.314;2023-03-15T13:00:22;101863.59;;;10.68
18161;BMP280;9205;52.032;4.314;2023-03-15T13:03:01;101858.56;;;10.63
18161;BMP280;9205;52.032;4.314;2023-03-15T13:05:35;101862.81;;;10.58
18161;BMP280;9205;52.032;4.314;2023-03-15T13:08:19;101868.69;;;10.71
18161;BMP280;9205;52.032;4.314;2023-03-15T13:11:11;101871.22;;;10.71
18161;BMP280;9205;52.032;4.314;2023-03-15T13:14:17;101854.34;;;10.59
18161;BMP280;9205;52.032;4.314;2023-03-15T13:16:55;101866.22;;;10.57
18161;BMP280;9205;52.032;4.314;2023-03-15T13:19:29;101860.25;;;10.63
18161;BMP280;9205;52.032;4.314;2023-03-15T13:22:12;101855.16;;;10.66
18161;BMP280;9205;52.032;4.314;2023-03-15T13:24:55;101860.19;;;10.73
18161;BMP280;9205;52.032;4.314;2023-03-15T13:27:44;101855.09;;;10.79
18161;BMP280;9205;52.032;4.314;2023-03-15T13:30:33;101862.63;;;10.88
18161;BMP280;9205;52.032;4.314;2023-03-15T13:33:17;101864.38;;;10.82
18161;BMP280;9205;52.032;4.314;2023-03-15T13:35:52;101865.28;;;10.75
18161;BMP280;9205;52.032;4.314;2023-03-15T13:38:28;101865.28;;;10.72
18161;BMP280;9205;52.032;4.314;2023-03-15T13:40:59;101877.97;;;10.73
18161;BMP280;9205;52.032;4.314;2023-03-15T13:43:32;101874.59;;;10.73
18161;BMP280;9205;52.032;4.314;2023-03-15T13:46:00;101874.66;;;10.61
18161;BMP280;9205;52.032;4.314;2023-03-15T13:48:33;101863.66;;;10.63
18161;BMP280;9205;52.032;4.314;2023-03-15T13:51:10;101872.94;;;10.70
18161;BMP280;9205;52.032;4.314;2023-03-15T13:53:52;101872.88;;;10.76
18161;BMP280;9205;52.032;4.314;2023-03-15T13:56:28;101872.84;;;10.85
18161;BMP280;9205;52.032;4.314;2023-03-15T13:59:00;101864.41;;;10.79
18161;BMP280;9205;52.032;4.314;2023-03-15T14:01:30;101877.19;;;10.64
18161;BMP280;9205;52.032;4.314;2023-03-15T14:04:07;101870.41;;;10.63
18161;BMP280;9205;52.032;4.314;2023-03-15T14:06:36;101863.63;;;10.69
18161;BMP280;9205;52.032;4.314;2023-03-15T14:09:10;101865.31;;;10.70
18161;BMP280;9205;52.032;4.314;2023-03-15T14:11:59;101870.41;;;10.66
18161;BMP280;9205;52.032;4.314;2023-03-15T14:14:30;101868.66;;;10.72
18161;BMP280;9205;52.032;4.314;2023-03-15T14:16:59;101873.78;;;10.69
18161;BMP280;9205;52.032;4.314;2023-03-15T14:19:32;101878.06;;;10.61
18161;BMP280;9205;52.032;4.314;2023-03-15T14:22:03;101872.94;;;10.64
18161;BMP280;9205;52.032;4.314;2023-03-15T14:24:37;101881.44;;;10.57
18161;BMP280;9205;52.032;4.314;2023-03-15T14:27:12;101884.84;;;10.58
18161;BMP280;9205;52.032;4.314;2023-03-15T14:29:46;101884.03;;;10.51
18161;BMP280;9205;52.032;4.314;2023-03-15T14:32:28;101872.19;;;10.50
18161;BMP280;9205;52.032;4.314;2023-03-15T14:35:02;101865.38;;;10.60
18161;BMP280;9205;52.032;4.314;2023-03-15T14:37:36;101866.19;;;10.65
18161;BMP280;9205;52.032;4.314;2023-03-15T14:40:12;101862.78;;;10.63
18161;BMP280;9205;52.032;4.314;2023-03-15T14:42:42;101855.22;;;10.54
18161;BMP280;9205;52.032;4.314;2023-03-15T14:45:10;101862.06;;;10.40
18161;BMP280;9205;52.032;4.314;2023-03-15T14:47:43;101857.81;;;10.43
18161;BMP280;9205;52.032;4.314;2023-03-15T14:50:19;101856.97;;;10.47
18161;BMP280;9205;52.032;4.314;2023-03-15T14:52:48;101851.91;;;10.41
18161;BMP280;9205;52.032;4.314;2023-03-15T14:55:20;101859.53;;;10.35
18161;BMP280;9205;52.032;4.314;2023-03-15T14:57:49;101855.34;;;10.33
18161;BMP280;9205;52.032;4.314;2023-03-15T15:00:18;101854.50;;;10.32
18161;BMP280;9205;52.032;4.314;2023-03-15T15:02:50;101851.94;;;10.34
18161;BMP280;9205;52.032;4.314;2023-03-15T15:05:24;101859.56;;;10.34